This is the latest recevied weather packets stored in our database for station/object OE6PWE-13. If no packets are shown the sender has not sent any weather packets the latest 10 day(s).
| Time | Temp. | Humidity | Pressure | Rain* | Wind** | Luminosity | Snow |
|---|---|---|---|---|---|---|---|
| 1777282219 | 17.22° C | 40% | 1022 hPa | 0 mm | - | - | - |
| 1777281313 | 17.22° C | 40% | 1022 hPa | 0 mm | - | - | - |
| 1777280420 | 16.11° C | 40% | 1022 hPa | 0 mm | - | - | - |
| 1777279513 | 15° C | 45% | 1022 hPa | 0 mm | - | - | - |
| 1777278621 | 14.44° C | 45% | 1023 hPa | 0 mm | - | - | - |
| 1777277713 | 13.89° C | 45% | 1023 hPa | 0 mm | - | - | - |
| 1777275913 | 12.78° C | 47% | 1023 hPa | 0 mm | - | - | - |
| 1777275021 | 12.22° C | 49% | 1023 hPa | 0 mm | - | - | - |
| 1777274113 | 12.22° C | 51% | 1023 hPa | 0 mm | - | - | - |
| 1777272314 | 8.33° C | 76% | 1024 hPa | 0 mm | - | - | - |
| 1777271420 | 7.22° C | 82% | 1024 hPa | 0 mm | - | - | - |
| 1777270513 | 6.11° C | 83% | 1025 hPa | 0 mm | - | - | - |
| 1777269619 | 5.56° C | 85% | 1025 hPa | 0 mm | - | - | - |
| 1777268714 | 5° C | 87% | 1025 hPa | 0 mm | - | - | - |
| 1777266914 | 4.44° C | 89% | 1025 hPa | 0 mm | - | - | - |
| 1777266020 | 4.44° C | 88% | 1025 hPa | 0 mm | - | - | - |
| 1777265113 | 4.44° C | 88% | 1025 hPa | 0 mm | - | - | - |
| 1777264221 | 4.44° C | 88% | 1025 hPa | 0 mm | - | - | - |
| 1777263313 | 5° C | 88% | 1025 hPa | 0 mm | - | - | - |
| 1777262418 | 5° C | 87% | 1025 hPa | 0 mm | - | - | - |
| 1777261513 | 5° C | 87% | 1025 hPa | 0 mm | - | - | - |
| 1777259713 | 5.56° C | 85% | 1025 hPa | 0 mm | - | - | - |
| 1777258819 | 5.56° C | 85% | 1025 hPa | 0 mm | - | - | - |
| 1777257914 | 5.56° C | 85% | 1025 hPa | 0 mm | - | - | - |
| 1777257018 | 5° C | 85% | 1025 hPa | 0 mm | - | - | - |
* Rain latest hour (hover to see other rain measurements)
** Current wind speed in m/s (hover to see current wind gust speed)